createdAt,value
2018-07-08T00:00:54.717Z,14.80
2018-07-08T00:01:54.694Z,14.87
2018-07-08T00:02:54.665Z,14.80
2018-07-08T00:03:57.464Z,14.85
2018-07-08T00:04:54.612Z,14.82
2018-07-08T00:05:54.587Z,14.72
2018-07-08T00:06:54.561Z,14.80
2018-07-08T00:07:54.538Z,14.72
2018-07-08T00:08:54.714Z,14.72
2018-07-08T00:09:54.486Z,14.72
2018-07-08T00:10:54.664Z,14.74
2018-07-08T00:11:54.434Z,14.71
2018-07-08T00:12:54.409Z,14.67
2018-07-08T00:13:54.390Z,14.71
2018-07-08T00:14:54.357Z,14.61
2018-07-08T00:15:54.333Z,14.74
2018-07-08T00:16:54.305Z,14.71
2018-07-08T00:17:54.280Z,14.72
2018-07-08T00:18:54.257Z,14.67
2018-07-08T00:19:54.436Z,14.67
2018-07-08T00:20:54.412Z,14.64
2018-07-08T00:21:54.181Z,14.59
2018-07-08T00:22:55.167Z,14.59
2018-07-08T00:23:54.137Z,14.57
2018-07-08T00:24:54.305Z,14.59
2018-07-08T00:25:54.077Z,14.59
2018-07-08T00:26:54.052Z,14.53
2018-07-08T00:27:54.029Z,14.61
2018-07-08T00:28:54.003Z,14.63
2018-07-08T00:29:53.977Z,14.59
2018-07-08T00:30:53.956Z,14.64
2018-07-08T00:31:53.925Z,14.54
2018-07-08T00:32:53.901Z,14.61
2018-07-08T00:33:53.875Z,14.57
2018-07-08T00:34:53.848Z,14.59
2018-07-08T00:35:53.822Z,14.49
2018-07-08T00:36:53.797Z,14.57
2018-07-08T00:37:53.769Z,14.57
2018-07-08T00:38:53.745Z,14.48
2018-07-08T00:39:53.748Z,14.54
2018-07-08T00:40:53.697Z,14.49
2018-07-08T00:41:53.671Z,14.46
2018-07-08T00:42:53.645Z,14.52
2018-07-08T00:43:53.618Z,14.54
2018-07-08T00:44:53.591Z,14.48
2018-07-08T00:45:53.568Z,14.53
2018-07-08T00:46:53.747Z,14.54
2018-07-08T00:47:53.520Z,14.57
2018-07-08T00:48:53.790Z,14.45
2018-07-08T00:49:53.464Z,14.53
2018-07-08T00:50:53.440Z,14.54
2018-07-08T00:51:53.415Z,14.48
2018-07-08T00:52:53.391Z,14.49
2018-07-08T00:53:53.395Z,14.54
2018-07-08T00:54:53.339Z,14.52
2018-07-08T00:55:53.311Z,14.49
2018-07-08T00:56:53.287Z,14.53
2018-07-08T00:57:53.259Z,14.49
2018-07-08T00:58:53.234Z,14.53
2018-07-08T00:59:53.213Z,14.52
2018-07-08T01:00:53.185Z,14.49
2018-07-08T01:01:53.160Z,14.56
2018-07-08T01:02:53.134Z,14.54
2018-07-08T01:03:53.132Z,14.53
2018-07-08T01:04:53.083Z,14.53
2018-07-08T01:05:53.057Z,14.52
2018-07-08T01:06:53.032Z,14.52
2018-07-08T01:07:53.008Z,14.46
2018-07-08T01:08:52.980Z,14.41
2018-07-08T01:09:52.953Z,14.45
2018-07-08T01:10:52.928Z,14.41
2018-07-08T01:11:52.909Z,14.46
2018-07-08T01:12:52.879Z,14.49
2018-07-08T01:13:52.853Z,14.49
2018-07-08T01:14:52.827Z,14.52
2018-07-08T01:15:52.802Z,14.45
2018-07-08T01:16:52.779Z,14.52
2018-07-08T01:17:52.749Z,14.53
2018-07-08T01:18:53.524Z,14.45
2018-07-08T01:19:52.697Z,14.45
2018-07-08T01:20:52.673Z,14.35
2018-07-08T01:21:52.647Z,14.34
2018-07-08T01:22:52.624Z,14.42
2018-07-08T01:23:52.599Z,14.38
2018-07-08T01:24:52.572Z,14.45
2018-07-08T01:25:52.551Z,14.35
2018-07-08T01:26:52.522Z,14.38
2018-07-08T01:27:52.494Z,14.41
2018-07-08T01:28:52.469Z,14.44
2018-07-08T01:29:52.443Z,14.34
2018-07-08T01:30:52.421Z,14.34
2018-07-08T01:31:52.440Z,14.30
2018-07-08T01:32:52.370Z,14.31
2018-07-08T01:33:52.344Z,14.35
2018-07-08T01:34:52.317Z,14.39
2018-07-08T01:35:52.290Z,14.30
2018-07-08T01:36:52.267Z,14.26
2018-07-08T01:37:52.243Z,14.34
2018-07-08T01:38:52.214Z,14.27
2018-07-08T01:39:52.191Z,14.27
2018-07-08T01:40:52.164Z,14.27
2018-07-08T01:41:52.139Z,14.31
2018-07-08T01:42:52.113Z,14.27
2018-07-08T01:43:52.085Z,14.26
2018-07-08T01:44:52.060Z,14.19
2018-07-08T01:45:52.040Z,14.19
2018-07-08T01:46:52.010Z,14.19
2018-07-08T01:47:51.985Z,14.21
2018-07-08T01:48:51.960Z,14.20
2018-07-08T01:49:51.933Z,14.20
2018-07-08T01:50:51.907Z,14.19
2018-07-08T01:51:51.884Z,14.19
2018-07-08T01:52:51.856Z,14.17
2018-07-08T01:53:51.864Z,14.26
2018-07-08T01:54:51.811Z,14.20
2018-07-08T01:55:51.778Z,14.26
2018-07-08T01:56:51.753Z,14.19
2018-07-08T01:57:51.750Z,14.20
2018-07-08T01:58:51.702Z,14.20
2018-07-08T01:59:51.678Z,14.20
2018-07-08T02:00:51.651Z,14.21
2018-07-08T02:01:51.626Z,14.05
2018-07-08T02:02:51.602Z,14.12
2018-07-08T02:03:51.573Z,14.17
2018-07-08T02:04:51.548Z,14.20
2018-07-08T02:05:51.526Z,14.11
2018-07-08T02:06:51.502Z,14.19
2018-07-08T02:07:51.484Z,14.17
2018-07-08T02:08:51.452Z,14.09
2018-07-08T02:09:51.425Z,14.19
2018-07-08T02:10:51.396Z,14.19
2018-07-08T02:11:51.371Z,14.11
2018-07-08T02:12:51.344Z,14.09
2018-07-08T02:13:51.318Z,14.13
2018-07-08T02:14:51.292Z,14.08
2018-07-08T02:15:51.467Z,14.05
2018-07-08T02:16:51.440Z,14.09
2018-07-08T02:17:51.213Z,14.17
2018-07-08T02:18:51.189Z,14.12
2018-07-08T02:19:51.173Z,14.08
2018-07-08T02:20:51.138Z,14.09
2018-07-08T02:21:51.111Z,14.08
2018-07-08T02:22:51.085Z,14.11
2018-07-08T02:23:51.060Z,14.08
2018-07-08T02:24:51.036Z,14.08
2018-07-08T02:25:51.009Z,14.06
2018-07-08T02:26:50.983Z,14.11
2018-07-08T02:27:50.955Z,14.11
2018-07-08T02:28:50.929Z,14.11
2018-07-08T02:29:50.903Z,14.06
2018-07-08T02:30:50.888Z,14.08
2018-07-08T02:31:50.856Z,14.06
2018-07-08T02:32:50.828Z,14.05
2018-07-08T02:33:50.810Z,13.99
2018-07-08T02:34:51.278Z,13.98
2018-07-08T02:35:50.751Z,13.94
2018-07-08T02:36:50.724Z,14.01
2018-07-08T02:37:50.699Z,14.01
2018-07-08T02:38:50.675Z,13.96
2018-07-08T02:39:50.647Z,13.98
2018-07-08T02:40:50.620Z,14.02
2018-07-08T02:41:50.594Z,14.01
2018-07-08T02:42:50.576Z,14.01
2018-07-08T02:43:50.546Z,13.93
2018-07-08T02:44:50.525Z,14.01
2018-07-08T02:45:50.503Z,13.98
2018-07-08T02:46:50.467Z,13.93
2018-07-08T02:47:50.442Z,13.98
2018-07-08T02:48:50.414Z,13.90
2018-07-08T02:49:50.388Z,13.87
2018-07-08T02:50:50.365Z,13.98
2018-07-08T02:51:50.339Z,13.96
2018-07-08T02:52:50.519Z,13.88
2018-07-08T02:53:50.898Z,13.94
2018-07-08T02:54:50.471Z,13.94
2018-07-08T02:55:50.438Z,13.93
2018-07-08T02:56:50.411Z,13.91
2018-07-08T02:57:50.384Z,13.93
2018-07-08T02:58:52.981Z,13.87
2018-07-08T02:59:50.332Z,13.88
2018-07-08T03:00:50.103Z,13.86
2018-07-08T03:01:50.080Z,13.91
2018-07-08T03:02:50.053Z,13.91
2018-07-08T03:03:50.235Z,13.88
2018-07-08T03:04:50.012Z,13.98
2018-07-08T03:05:49.981Z,13.90
2018-07-08T03:06:49.951Z,13.87
2018-07-08T03:07:49.937Z,13.94
2018-07-08T03:08:49.896Z,13.96
2018-07-08T03:09:49.869Z,13.84
2018-07-08T03:10:49.844Z,13.86
2018-07-08T03:11:49.818Z,13.86
2018-07-08T03:12:49.792Z,13.86
2018-07-08T03:13:49.766Z,13.84
2018-07-08T03:14:49.740Z,13.90
2018-07-08T03:15:49.918Z,13.81
2018-07-08T03:16:49.692Z,13.79
2018-07-08T03:17:49.668Z,13.91
2018-07-08T03:18:49.640Z,13.88
2018-07-08T03:19:49.611Z,13.84
2018-07-08T03:20:49.589Z,13.83
2018-07-08T03:21:49.559Z,13.84
2018-07-08T03:22:49.535Z,13.84
2018-07-08T03:23:49.512Z,13.87
2018-07-08T03:24:49.486Z,13.84
2018-07-08T03:25:49.462Z,13.84
2018-07-08T03:26:49.431Z,13.86
2018-07-08T03:27:49.408Z,13.80
2018-07-08T03:28:49.380Z,13.83
2018-07-08T03:29:49.355Z,13.84
2018-07-08T03:30:49.330Z,13.87
2018-07-08T03:31:49.303Z,13.87
2018-07-08T03:32:49.277Z,13.87
2018-07-08T03:33:49.252Z,13.83
2018-07-08T03:34:49.223Z,13.83
2018-07-08T03:35:49.201Z,13.84
2018-07-08T03:36:49.175Z,13.80
2018-07-08T03:37:49.349Z,13.88
2018-07-08T03:38:49.122Z,13.87
2018-07-08T03:39:49.296Z,13.86
2018-07-08T03:40:49.068Z,13.88
2018-07-08T03:41:49.043Z,13.84
2018-07-08T03:42:49.218Z,13.88
2018-07-08T03:43:48.995Z,13.88
2018-07-08T03:44:48.967Z,13.86
2018-07-08T03:45:48.943Z,13.81
2018-07-08T03:46:48.915Z,13.88
2018-07-08T03:47:48.889Z,13.87
2018-07-08T03:48:48.861Z,13.90
2018-07-08T03:49:48.833Z,13.87
2018-07-08T03:50:48.810Z,13.88
2018-07-08T03:51:48.785Z,13.96
2018-07-08T03:52:48.760Z,13.98
2018-07-08T03:53:48.739Z,14.06
2018-07-08T03:54:48.710Z,14.01
2018-07-08T03:55:48.684Z,14.09
2018-07-08T03:56:48.656Z,14.11
2018-07-08T03:57:48.628Z,14.12
2018-07-08T03:58:48.609Z,14.05
2018-07-08T03:59:48.579Z,14.08
2018-07-08T04:00:48.557Z,14.13
2018-07-08T04:01:48.732Z,14.24
2018-07-08T04:02:48.502Z,14.24
2018-07-08T04:03:48.479Z,14.21
2018-07-08T04:04:48.453Z,14.20
2018-07-08T04:05:48.426Z,14.11
2018-07-08T04:06:48.402Z,14.30
2018-07-08T04:07:48.374Z,14.30
2018-07-08T04:08:48.350Z,14.34
2018-07-08T04:09:48.324Z,14.17
2018-07-08T04:10:48.299Z,14.20
2018-07-08T04:11:48.276Z,14.16
2018-07-08T04:12:48.253Z,14.27
2018-07-08T04:13:48.225Z,14.42
2018-07-08T04:14:48.202Z,14.56
2018-07-08T04:15:48.176Z,14.67
2018-07-08T04:16:48.156Z,14.80
2018-07-08T04:17:48.130Z,14.82
2018-07-08T04:18:48.101Z,14.82
2018-07-08T04:19:48.074Z,14.67
2018-07-08T04:20:48.049Z,14.60
2018-07-08T04:21:48.025Z,14.64
2018-07-08T04:22:48.000Z,14.86
2018-07-08T04:23:48.186Z,14.93
2018-07-08T04:24:47.953Z,14.86
2018-07-08T04:25:47.927Z,14.56
2018-07-08T04:26:47.911Z,14.60
2018-07-08T04:27:47.879Z,14.72
2018-07-08T04:28:47.852Z,14.78
2018-07-08T04:29:47.825Z,14.63
2018-07-08T04:30:47.802Z,14.53
2018-07-08T04:31:47.776Z,14.61
2018-07-08T04:32:47.753Z,14.59
2018-07-08T04:33:47.728Z,14.61
2018-07-08T04:34:47.705Z,14.78
2018-07-08T04:35:47.682Z,14.71
2018-07-08T04:36:50.887Z,14.49
2018-07-08T04:38:29.983Z,14.91
2018-07-08T04:39:29.960Z,14.98
2018-07-08T04:40:29.934Z,15.13
2018-07-08T04:41:29.711Z,15.03
2018-07-08T04:42:29.685Z,15.23
2018-07-08T04:43:29.672Z,15.15
2018-07-08T04:44:29.639Z,15.03
2018-07-08T04:45:29.612Z,14.97
2018-07-08T04:46:29.589Z,15.25
2018-07-08T04:47:29.563Z,15.34
2018-07-08T04:48:29.589Z,15.27
2018-07-08T04:49:29.517Z,15.05
2018-07-08T04:50:29.494Z,15.07
2018-07-08T04:51:29.678Z,15.28
2018-07-08T04:52:29.445Z,15.22
2018-07-08T04:53:29.420Z,15.40
2018-07-08T04:54:29.398Z,15.55
2018-07-08T04:55:29.373Z,15.31
2018-07-08T04:56:29.350Z,15.52
2018-07-08T04:57:29.325Z,15.66
2018-07-08T04:58:29.503Z,15.77
2018-07-08T04:59:29.276Z,15.76
2018-07-08T05:00:29.254Z,15.99
2018-07-08T05:01:29.432Z,15.89
2018-07-08T05:02:32.033Z,15.76
2018-07-08T05:03:29.791Z,15.66
2018-07-08T05:04:29.361Z,15.73
2018-07-08T05:05:29.337Z,15.88
2018-07-08T05:06:29.363Z,15.95
2018-07-08T05:07:29.288Z,16.42
2018-07-08T05:08:29.064Z,16.14
2018-07-08T05:09:29.041Z,16.34
2018-07-08T05:10:29.018Z,15.99
2018-07-08T05:11:28.993Z,15.91
2018-07-08T05:12:28.969Z,16.07
2018-07-08T05:13:28.949Z,15.86
2018-07-08T05:14:28.932Z,16.07
2018-07-08T05:15:28.901Z,16.17
2018-07-08T05:16:28.883Z,16.44
2018-07-08T05:17:28.855Z,16.40
2018-07-08T05:18:28.832Z,16.44
2018-07-08T05:19:28.809Z,16.88
2018-07-08T05:20:28.857Z,16.73
2018-07-08T05:21:28.765Z,16.25
2018-07-08T05:22:28.741Z,15.99
2018-07-08T05:23:28.726Z,16.16
2018-07-08T05:24:28.696Z,16.65
2018-07-08T05:25:28.672Z,16.82
2018-07-08T05:26:28.651Z,16.57
2018-07-08T05:27:28.628Z,16.50
2018-07-08T05:28:28.603Z,16.63
2018-07-08T05:29:28.583Z,16.65
2018-07-08T05:30:28.557Z,17.03
2018-07-08T05:31:28.534Z,17.24
2018-07-08T05:32:28.513Z,17.10
2018-07-08T05:33:28.492Z,16.87
2018-07-08T05:34:28.472Z,17.10
2018-07-08T05:35:28.447Z,17.17
2018-07-08T05:36:28.426Z,17.18
2018-07-08T05:37:28.404Z,17.07
2018-07-08T05:38:28.379Z,16.36
2018-07-08T05:39:28.356Z,16.54
2018-07-08T05:40:28.335Z,16.47
2018-07-08T05:41:28.315Z,16.66
2018-07-08T05:42:28.292Z,16.81
2018-07-08T05:43:28.270Z,16.69
2018-07-08T05:44:28.249Z,16.75
2018-07-08T05:45:28.227Z,17.14
2018-07-08T05:46:28.204Z,17.80
2018-07-08T05:47:28.181Z,17.71
2018-07-08T05:48:28.159Z,18.31
2018-07-08T05:49:28.140Z,17.83
2018-07-08T05:50:28.265Z,17.47
2018-07-08T05:51:28.095Z,17.81
2018-07-08T05:52:28.075Z,18.25
2018-07-08T05:53:28.051Z,17.80
2018-07-08T05:54:28.030Z,18.32
2018-07-08T05:55:28.009Z,18.04
2018-07-08T05:56:27.987Z,18.17
2018-07-08T05:57:28.172Z,17.57
2018-07-08T05:58:27.948Z,17.71
2018-07-08T05:59:27.923Z,17.77
2018-07-08T06:00:27.902Z,17.86
2018-07-08T06:01:27.883Z,17.25
2018-07-08T06:02:27.863Z,17.60
2018-07-08T06:03:27.843Z,17.84
2018-07-08T06:04:27.822Z,17.40
2018-07-08T06:05:27.799Z,17.80
2018-07-08T06:06:27.776Z,18.32
2018-07-08T06:07:27.755Z,18.66
2018-07-08T06:08:27.735Z,18.36
2018-07-08T06:09:27.716Z,18.91
2018-07-08T06:10:27.696Z,19.30
2018-07-08T06:11:27.675Z,19.10
2018-07-08T06:12:27.653Z,18.87
2018-07-08T06:13:27.635Z,18.56
2018-07-08T06:14:27.620Z,18.75
2018-07-08T06:15:27.624Z,19.21
2018-07-08T06:16:27.573Z,19.23
2018-07-08T06:17:27.555Z,18.82
2018-07-08T06:18:27.735Z,18.96
2018-07-08T06:19:27.515Z,19.42
2018-07-08T06:20:27.694Z,19.55
2018-07-08T06:21:27.478Z,20.07
2018-07-08T06:22:27.454Z,20.05
2018-07-08T06:23:27.634Z,19.64
2018-07-08T06:24:27.414Z,19.43
2018-07-08T06:25:27.596Z,18.99
2018-07-08T06:26:27.373Z,18.38
2018-07-08T06:27:27.353Z,18.68
2018-07-08T06:28:27.333Z,18.57
2018-07-08T06:29:27.315Z,18.53
2018-07-08T06:30:27.294Z,18.93
2018-07-08T06:31:27.274Z,18.56
2018-07-08T06:32:27.297Z,18.84
2018-07-08T06:33:27.243Z,19.49
2018-07-08T06:34:27.220Z,20.00
2018-07-08T06:35:27.199Z,20.05
2018-07-08T06:36:27.179Z,19.95
2018-07-08T06:37:27.161Z,19.92
2018-07-08T06:38:27.140Z,20.34
2018-07-08T06:39:27.141Z,19.95
2018-07-08T06:40:27.105Z,19.61
2018-07-08T06:41:27.083Z,18.93
2018-07-08T06:42:27.076Z,19.50
2018-07-08T06:43:27.046Z,19.65
2018-07-08T06:44:27.027Z,20.08
2018-07-08T06:45:27.009Z,20.17
2018-07-08T06:46:26.994Z,20.57
2018-07-08T06:47:26.971Z,20.90
2018-07-08T06:48:26.951Z,20.94
2018-07-08T06:49:26.932Z,20.63
2018-07-08T06:50:26.916Z,20.57
2018-07-08T06:51:26.895Z,20.38
2018-07-08T06:52:26.877Z,19.72
2018-07-08T06:53:26.861Z,20.00
2018-07-08T06:54:26.847Z,19.76
2018-07-08T06:55:26.828Z,19.86
2018-07-08T06:56:26.808Z,20.38
2018-07-08T06:57:26.786Z,19.86
2018-07-08T06:58:26.769Z,19.94
2018-07-08T06:59:26.754Z,19.72
2018-07-08T07:00:26.731Z,20.15
2018-07-08T07:01:26.714Z,20.35
2018-07-08T07:02:26.696Z,20.76
2018-07-08T07:03:26.677Z,20.85
2018-07-08T07:04:26.659Z,21.03
2018-07-08T07:05:26.647Z,21.12
2018-07-08T07:06:26.627Z,21.08
2018-07-08T07:07:26.608Z,21.27
2018-07-08T07:08:26.591Z,21.89
2018-07-08T07:09:26.573Z,22.45
2018-07-08T07:10:26.554Z,21.27
2018-07-08T07:11:26.538Z,20.02
2018-07-08T07:12:26.518Z,19.53
2018-07-08T07:13:26.504Z,20.01
2018-07-08T07:14:26.485Z,19.61
2018-07-08T07:15:26.467Z,19.75
2018-07-08T07:16:26.454Z,19.43
2018-07-08T07:17:26.467Z,19.90
2018-07-08T07:18:26.620Z,20.10
2018-07-08T07:19:26.403Z,20.20
2018-07-08T07:20:26.382Z,20.08
2018-07-08T07:21:26.364Z,20.10
2018-07-08T07:22:26.348Z,20.88
2018-07-08T07:23:26.328Z,21.70
2018-07-08T07:24:26.512Z,21.53
2018-07-08T07:25:26.299Z,20.76
2018-07-08T07:26:26.480Z,20.60
2018-07-08T07:27:26.464Z,21.09
2018-07-08T07:28:26.260Z,21.71
2018-07-08T07:29:26.427Z,21.15
2018-07-08T07:30:26.410Z,21.40
2018-07-08T07:31:26.190Z,20.90
2018-07-08T07:32:26.376Z,20.25
2018-07-08T07:34:50.673Z,20.41
2018-07-08T07:35:50.656Z,20.04
2018-07-08T07:36:50.438Z,20.34
2018-07-08T07:37:50.423Z,20.02
2018-07-08T07:38:50.405Z,19.98
2018-07-08T07:39:50.393Z,20.94
2018-07-08T07:40:50.372Z,21.24
2018-07-08T07:41:50.353Z,21.00
2018-07-08T07:42:50.336Z,19.90
2018-07-08T07:43:50.321Z,20.19
2018-07-08T07:44:50.301Z,20.57
2018-07-08T07:45:50.289Z,21.18
2018-07-08T07:46:50.271Z,21.70
2018-07-08T07:47:50.255Z,21.99
2018-07-08T07:48:50.240Z,22.20
2018-07-08T07:49:50.222Z,22.67
2018-07-08T07:50:50.407Z,23.21
2018-07-08T07:52:32.546Z,23.37
2018-07-08T07:53:32.330Z,22.91
2018-07-08T07:55:56.830Z,21.73
2018-07-08T07:56:56.610Z,21.34
2018-07-08T07:57:56.593Z,21.66
2018-07-08T07:58:56.639Z,21.53
2018-07-08T07:59:56.563Z,22.08
2018-07-08T08:00:56.751Z,22.75
2018-07-08T08:01:56.532Z,22.54
2018-07-08T08:02:56.514Z,22.30
2018-07-08T08:03:56.499Z,21.36
2018-07-08T08:04:56.482Z,20.83
2018-07-08T08:05:56.466Z,21.79
2018-07-08T08:06:56.458Z,22.02
2018-07-08T08:07:56.640Z,22.56
2018-07-08T08:08:56.423Z,22.56
2018-07-08T08:09:56.609Z,22.21
2018-07-08T08:10:56.391Z,21.90
2018-07-08T08:11:56.579Z,21.96
2018-07-08T08:12:56.360Z,21.16
2018-07-08T08:13:56.625Z,21.09
2018-07-08T08:14:56.331Z,21.40
2018-07-08T08:15:56.516Z,22.24
2018-07-08T08:16:56.301Z,22.31
2018-07-08T08:17:56.282Z,22.81
2018-07-08T08:18:56.271Z,23.38
2018-07-08T08:19:56.456Z,22.64
2018-07-08T08:20:56.284Z,23.14
2018-07-08T08:21:56.224Z,23.35
2018-07-08T08:22:56.208Z,22.86
2018-07-08T08:23:56.394Z,22.75
2018-07-08T08:24:56.380Z,22.12
2018-07-08T08:25:56.162Z,22.51
2018-07-08T08:26:56.148Z,22.69
2018-07-08T08:27:56.132Z,22.74
2018-07-08T08:28:56.117Z,22.91
2018-07-08T08:29:56.103Z,23.22
2018-07-08T08:30:56.095Z,24.02
2018-07-08T08:31:56.082Z,22.78
2018-07-08T08:32:56.262Z,22.94
2018-07-08T08:33:56.046Z,23.47
2018-07-08T08:34:56.234Z,23.19
2018-07-08T08:35:56.218Z,22.91
2018-07-08T08:36:58.824Z,23.15
2018-07-08T08:37:56.191Z,23.31
2018-07-08T08:38:56.378Z,22.97
2018-07-08T08:39:56.173Z,22.35
2018-07-08T08:40:55.944Z,21.01
2018-07-08T08:41:55.930Z,21.81
2018-07-08T08:42:55.922Z,23.04
2018-07-08T08:43:55.903Z,22.57
2018-07-08T08:44:55.886Z,22.70
2018-07-08T08:45:55.904Z,22.91
2018-07-08T08:46:55.857Z,22.89
2018-07-08T08:47:55.844Z,23.07
2018-07-08T08:48:55.827Z,23.37
2018-07-08T08:50:38.440Z,23.01
2018-07-08T08:51:38.223Z,23.16
2018-07-08T08:52:38.208Z,22.76
2018-07-08T08:53:38.197Z,22.96
2018-07-08T08:54:38.184Z,23.59
2018-07-08T08:55:39.380Z,24.02
2018-07-08T08:56:38.357Z,24.34
2018-07-08T08:57:38.343Z,23.54
2018-07-08T08:58:38.327Z,23.52
2018-07-08T08:59:38.110Z,23.52
2018-07-08T09:00:38.097Z,23.18
2018-07-08T09:01:38.085Z,23.84
2018-07-08T09:02:38.071Z,23.32
2018-07-08T09:03:38.288Z,22.54
2018-07-08T09:04:38.043Z,22.96
2018-07-08T09:05:38.028Z,23.23
2018-07-08T09:06:38.218Z,23.35
2018-07-08T09:07:38.203Z,22.86
2018-07-08T09:08:37.988Z,22.99
2018-07-08T09:09:38.176Z,22.70
2018-07-08T09:10:37.958Z,23.21
2018-07-08T09:11:38.144Z,23.25
2018-07-08T09:12:37.930Z,23.50
2018-07-08T09:13:37.919Z,23.25
2018-07-08T09:14:37.907Z,22.61
2018-07-08T09:15:38.093Z,22.06
2018-07-08T09:16:38.083Z,22.59
2018-07-08T09:17:37.863Z,22.49
2018-07-08T09:18:37.848Z,23.01
2018-07-08T09:19:37.833Z,23.52
2018-07-08T09:20:38.023Z,23.90
2018-07-08T09:21:38.013Z,24.30
2018-07-08T09:23:20.159Z,23.35
2018-07-08T09:24:20.146Z,23.89
2018-07-08T09:25:22.749Z,24.16
2018-07-08T09:26:20.118Z,24.59
2018-07-08T09:27:19.900Z,24.70
2018-07-08T09:28:20.090Z,24.64
2018-07-08T09:29:20.106Z,25.01
2018-07-08T09:30:19.864Z,24.60
2018-07-08T09:31:20.052Z,25.42
2018-07-08T09:32:19.832Z,25.12
2018-07-08T09:34:44.342Z,24.14
2018-07-08T09:35:44.328Z,23.67
2018-07-08T09:36:44.113Z,23.82
2018-07-08T09:37:44.104Z,23.71
2018-07-08T09:38:44.352Z,23.90
2018-07-08T09:39:44.076Z,23.72
2018-07-08T09:40:44.066Z,24.33
2018-07-08T09:41:44.049Z,24.99
2018-07-08T09:42:44.238Z,24.94
2018-07-08T09:43:44.224Z,24.00
2018-07-08T09:44:44.211Z,23.71
2018-07-08T09:45:44.201Z,23.37
2018-07-08T09:46:43.990Z,24.11
2018-07-08T09:47:44.176Z,24.44
2018-07-08T09:48:44.162Z,24.98
2018-07-08T09:49:43.948Z,24.53
2018-07-08T09:50:43.935Z,24.52
2018-07-08T09:51:43.920Z,24.89
2018-07-08T09:52:43.913Z,25.29
2018-07-08T09:53:43.897Z,24.36
2018-07-08T09:54:43.881Z,24.12
2018-07-08T09:55:43.867Z,24.12
2018-07-08T09:56:43.864Z,24.79
2018-07-08T09:57:43.843Z,23.67
2018-07-08T09:58:43.833Z,24.11
2018-07-08T09:59:47.860Z,24.15
2018-07-08T10:00:44.008Z,24.06
2018-07-08T10:01:44.018Z,24.12
2018-07-08T10:02:43.784Z,24.23
2018-07-08T10:04:26.153Z,25.09
2018-07-08T10:05:26.123Z,25.51
2018-07-08T10:06:26.711Z,25.46
2018-07-08T10:07:26.096Z,24.74
2018-07-08T10:08:25.883Z,25.54
2018-07-08T10:09:25.866Z,24.93
2018-07-08T10:10:25.854Z,24.24
2018-07-08T10:11:25.839Z,23.38
2018-07-08T10:12:25.827Z,23.72
2018-07-08T10:13:25.813Z,24.11
2018-07-08T10:14:25.802Z,24.89
2018-07-08T10:15:25.791Z,24.79
2018-07-08T10:16:25.802Z,24.84
2018-07-08T10:17:25.769Z,24.99
2018-07-08T10:18:25.758Z,25.42
2018-07-08T10:19:25.834Z,26.28
2018-07-08T10:20:25.730Z,26.23
2018-07-08T10:21:25.925Z,26.54
2018-07-08T10:22:25.906Z,26.59
2018-07-08T10:23:25.691Z,26.56
2018-07-08T10:24:25.679Z,25.86
2018-07-08T10:25:25.740Z,25.20
2018-07-08T10:26:25.857Z,25.41
2018-07-08T10:27:28.467Z,25.53
2018-07-08T10:28:27.049Z,25.02
2018-07-08T10:29:25.823Z,24.90
2018-07-08T10:30:25.867Z,24.29
2018-07-08T10:31:25.594Z,24.83
2018-07-08T10:32:25.590Z,25.34
2018-07-08T10:33:25.774Z,24.61
2018-07-08T10:34:25.561Z,24.83
2018-07-08T10:35:25.593Z,24.27
2018-07-08T10:36:25.578Z,24.33
2018-07-08T10:37:25.520Z,24.09
2018-07-08T10:38:25.710Z,24.02
2018-07-08T10:39:25.709Z,23.71
2018-07-08T10:41:07.846Z,23.47
2018-07-08T10:42:07.833Z,23.92
2018-07-08T10:43:09.035Z,24.46
2018-07-08T10:44:07.809Z,24.83
2018-07-08T10:45:07.800Z,24.00
2018-07-08T10:46:50.549Z,24.97
2018-07-08T10:47:49.929Z,24.98
2018-07-08T10:48:49.916Z,25.90
2018-07-08T10:49:49.702Z,25.93
2018-07-08T10:50:49.971Z,25.05
2018-07-08T10:51:49.879Z,25.86
2018-07-08T10:52:49.664Z,24.26
2018-07-08T10:53:51.065Z,25.24
2018-07-08T10:54:49.637Z,24.53
2018-07-08T10:55:49.624Z,24.70
2018-07-08T10:56:49.616Z,24.82
2018-07-08T10:57:49.605Z,24.27
2018-07-08T10:58:49.598Z,24.99
2018-07-08T10:59:49.777Z,25.61
2018-07-08T11:00:49.767Z,24.59
2018-07-08T11:01:49.591Z,25.30
2018-07-08T11:02:49.541Z,24.80
2018-07-08T11:03:49.527Z,25.23
2018-07-08T11:04:49.717Z,25.26
2018-07-08T11:05:49.704Z,24.86
2018-07-08T11:06:49.490Z,25.27
2018-07-08T11:07:49.684Z,25.81
2018-07-08T11:08:49.668Z,25.98
2018-07-08T11:09:49.455Z,25.72
2018-07-08T11:10:49.681Z,25.97
2018-07-08T11:11:49.636Z,26.16
2018-07-08T11:12:49.425Z,25.59
2018-07-08T11:13:49.408Z,25.17
2018-07-08T11:14:49.406Z,25.26
2018-07-08T11:15:49.385Z,24.74
2018-07-08T11:16:49.374Z,25.30
2018-07-08T11:17:49.575Z,25.74
2018-07-08T11:18:49.355Z,25.75
2018-07-08T11:19:49.341Z,26.31
2018-07-08T11:20:49.574Z,25.42
2018-07-08T11:21:49.520Z,25.83
2018-07-08T11:22:49.507Z,26.24
2018-07-08T11:23:49.494Z,25.94
2018-07-08T11:24:49.283Z,25.98
2018-07-08T11:25:49.267Z,25.24
2018-07-08T11:26:49.255Z,24.98
2018-07-08T11:27:49.243Z,24.74
2018-07-08T11:28:49.436Z,24.77
2018-07-08T11:29:49.422Z,25.22
2018-07-08T11:30:49.208Z,25.19
2018-07-08T11:31:49.193Z,24.70
2018-07-08T11:32:52.009Z,24.90
2018-07-08T11:33:49.371Z,24.79
2018-07-08T11:34:49.358Z,24.14
2018-07-08T11:35:49.346Z,24.29
2018-07-08T11:36:49.331Z,24.63
2018-07-08T11:37:49.119Z,24.92
2018-07-08T11:38:49.101Z,25.44
2018-07-08T11:39:49.087Z,25.35
2018-07-08T11:40:49.075Z,25.42
2018-07-08T11:41:49.064Z,25.56
2018-07-08T11:42:49.118Z,25.53
2018-07-08T11:43:49.044Z,25.29
2018-07-08T11:44:49.025Z,24.86
2018-07-08T11:45:49.011Z,25.41
2018-07-08T11:46:48.998Z,25.83
2018-07-08T11:47:48.984Z,25.38
2018-07-08T11:48:48.972Z,26.11
2018-07-08T11:49:48.990Z,26.28
2018-07-08T11:50:49.153Z,26.11
2018-07-08T11:51:48.937Z,26.00
2018-07-08T11:52:48.927Z,25.90
2018-07-08T11:53:49.114Z,24.70
2018-07-08T11:54:48.902Z,25.41
2018-07-08T11:55:48.891Z,25.20
2018-07-08T11:56:48.879Z,25.26
2018-07-08T11:57:48.869Z,25.75
2018-07-08T11:58:48.860Z,26.03
2018-07-08T11:59:48.846Z,25.67
2018-07-08T12:00:48.838Z,24.97
2018-07-08T12:01:48.834Z,25.45
2018-07-08T12:02:48.811Z,24.84
2018-07-08T12:03:48.799Z,25.44
2018-07-08T12:04:48.787Z,25.91
2018-07-08T12:05:48.979Z,26.21
2018-07-08T12:06:48.766Z,26.17
2018-07-08T12:07:48.756Z,26.06
2018-07-08T12:08:48.747Z,25.69
2018-07-08T12:09:48.937Z,25.66
2018-07-08T12:10:48.724Z,25.54
2018-07-08T12:11:48.713Z,25.82
2018-07-08T12:12:48.700Z,26.04
2018-07-08T12:13:48.693Z,25.71
2018-07-08T12:14:48.677Z,25.57
2018-07-08T12:15:48.670Z,25.48
2018-07-08T12:16:48.655Z,25.49
2018-07-08T12:17:48.856Z,25.36
2018-07-08T12:18:48.636Z,25.54
2018-07-08T12:19:48.625Z,25.90
2018-07-08T12:20:48.816Z,25.93
2018-07-08T12:21:48.805Z,26.38
2018-07-08T12:22:48.593Z,26.36
2018-07-08T12:23:51.405Z,26.23
2018-07-08T12:24:48.573Z,25.91
2018-07-08T12:25:48.558Z,24.97
2018-07-08T12:26:48.548Z,25.35
2018-07-08T12:27:48.536Z,25.12
2018-07-08T12:28:48.524Z,24.29
2018-07-08T12:29:51.947Z,25.45
2018-07-08T12:30:48.708Z,26.16
2018-07-08T12:31:48.699Z,26.09
2018-07-08T12:33:30.846Z,25.94
2018-07-08T12:36:12.987Z,26.68
2018-07-08T12:37:55.137Z,25.66
2018-07-08T12:47:21.074Z,25.91
2018-07-08T12:48:20.849Z,26.09
2018-07-08T12:53:06.596Z,25.69
2018-07-08T12:56:09.641Z,25.12
2018-07-08T12:57:09.423Z,25.16
2018-07-08T12:58:09.410Z,25.60
2018-07-08T13:02:33.900Z,24.89
2018-07-08T13:03:33.686Z,24.64
2018-07-08T13:04:33.680Z,24.94
2018-07-08T13:05:33.670Z,24.94
2018-07-08T13:08:40.336Z,25.85
2018-07-08T13:11:46.868Z,25.20
2018-07-08T13:12:47.605Z,25.53
2018-07-08T13:13:46.783Z,25.23
2018-07-08T13:26:19.207Z,25.78
2018-07-08T13:31:10.418Z,25.08
2018-07-08T13:32:07.623Z,24.98
2018-07-08T14:01:14.164Z,25.71
2018-07-08T14:02:13.947Z,25.38
2018-07-08T14:03:14.543Z,25.17
2018-07-08T14:04:14.124Z,25.08
2018-07-08T14:05:13.907Z,24.87
2018-07-08T14:06:56.254Z,24.36
2018-07-08T14:07:56.057Z,24.74
2018-07-08T14:08:56.025Z,24.80
2018-07-08T14:09:56.015Z,24.63
2018-07-08T14:10:56.003Z,24.75